Wittmundhafen Air Base

METAR EHGG TAF EHGG
2 °C
°C
-
°C
35m
Leeftijd
00:30:02
LT
23:30
UTC
0 ft

1.000

2.000

3.000

4.000

5.000

OVC 1.600
MVFR
<?= Yii::t('app', 'Wind direction') ?> <?= Yii::t('app', 'of'); ?>
060°
08:25
Zonsopgang
75%
Luchtvochtigheid
Windschering
Gesloten/sneeuw
Baanzicht
Baanconditie
Verticaal zicht
Min. zicht
CAVOK
Trend
Correctie
Speciaal rapport
1029 hPa
QNH
METAR EHGG 272255Z AUTO 06004KT 360V100 9999 OVC016 02/M02 Q1029
Geheel bewolkt
1 kt
1 kt
00:00
IFR
8 kt
01:00
LIFR
2 kt
02:00
LIFR
2 kt
03:00
LIFR
2 kt
04:00
LIFR
2 kt
05:00
LIFR
2 kt
06:00
LIFR
2 kt
10 km+
Zicht
1.600 ft
Plafond
4 kt
Wind
metar-taf.com/ETNT

Metar-Taf.com

Visuele decoder

Wij en derden volgen je internetgedrag op onze website met cookies. Als je doorgaat, gaan we ervan uit dat je akkoord gaat met onze cookiebeleid.